createdAt,value
2023-05-09T00:00:16.225Z,34.27
2023-05-09T00:01:16.797Z,34.39
2023-05-09T00:02:16.312Z,34.41
2023-05-09T00:03:16.295Z,34.36
2023-05-09T00:04:16.377Z,34.35
2023-05-09T00:05:16.643Z,34.39
2023-05-09T00:06:16.196Z,34.32
2023-05-09T00:07:16.167Z,34.37
2023-05-09T00:08:16.144Z,34.31
2023-05-09T00:09:16.119Z,34.37
2023-05-09T00:10:16.134Z,34.36
2023-05-09T00:11:16.096Z,34.40
2023-05-09T00:12:16.054Z,34.33
2023-05-09T00:13:16.107Z,34.28
2023-05-09T00:14:16.021Z,34.33
2023-05-09T00:15:16.215Z,34.35
2023-05-09T00:16:16.021Z,34.33
2023-05-09T00:17:16.053Z,34.31
2023-05-09T00:18:15.950Z,34.26
2023-05-09T00:19:15.933Z,34.36
2023-05-09T00:20:15.931Z,34.33
2023-05-09T00:21:15.923Z,34.30
2023-05-09T00:22:15.867Z,34.27
2023-05-09T00:23:15.848Z,34.35
2023-05-09T00:24:15.868Z,34.28
2023-05-09T00:25:16.012Z,34.32
2023-05-09T00:26:15.790Z,34.25
2023-05-09T00:27:15.769Z,34.27
2023-05-09T00:28:15.746Z,34.32
2023-05-09T00:29:15.734Z,34.30
2023-05-09T00:30:15.705Z,34.36
2023-05-09T00:31:15.682Z,34.35
2023-05-09T00:32:15.773Z,34.30
2023-05-09T00:33:15.742Z,34.24
2023-05-09T00:34:15.610Z,34.33
2023-05-09T00:35:15.794Z,34.33
2023-05-09T00:36:15.577Z,34.40
2023-05-09T00:37:15.539Z,34.32
2023-05-09T00:38:15.509Z,34.20
2023-05-09T00:39:15.488Z,34.28
2023-05-09T00:40:15.470Z,34.29
2023-05-09T00:41:15.470Z,34.27
2023-05-09T00:42:15.424Z,34.28
2023-05-09T00:43:15.413Z,34.23
2023-05-09T00:44:15.406Z,34.32
2023-05-09T00:45:15.591Z,34.33
2023-05-09T00:46:15.368Z,34.35
2023-05-09T00:47:15.330Z,34.28
2023-05-09T00:48:15.292Z,34.37
2023-05-09T00:49:15.368Z,34.36
2023-05-09T00:50:15.286Z,34.37
2023-05-09T00:51:15.248Z,34.37
2023-05-09T00:52:15.254Z,34.35
2023-05-09T00:53:15.206Z,34.20
2023-05-09T00:54:15.219Z,34.34
2023-05-09T00:55:15.332Z,34.35
2023-05-09T00:56:15.163Z,34.36
2023-05-09T00:57:15.141Z,34.30
2023-05-09T00:58:15.107Z,34.30
2023-05-09T00:59:17.492Z,34.28
2023-05-09T01:00:15.137Z,34.33
2023-05-09T01:01:15.215Z,34.28
2023-05-09T01:02:15.218Z,34.33
2023-05-09T01:03:15.251Z,34.35
2023-05-09T01:04:15.200Z,34.32
2023-05-09T01:05:15.679Z,34.27
2023-05-09T01:06:15.171Z,34.25
2023-05-09T01:07:15.197Z,34.30
2023-05-09T01:08:15.218Z,34.30
2023-05-09T01:09:15.193Z,34.39
2023-05-09T01:10:15.232Z,34.30
2023-05-09T01:11:15.197Z,34.32
2023-05-09T01:12:15.197Z,34.30
2023-05-09T01:13:15.275Z,34.22
2023-05-09T01:14:15.200Z,34.33
2023-05-09T01:15:15.485Z,34.32
2023-05-09T01:16:15.237Z,34.22
2023-05-09T01:17:15.203Z,34.32
2023-05-09T01:18:15.220Z,34.30
2023-05-09T01:19:15.212Z,34.33
2023-05-09T01:20:15.209Z,34.24
2023-05-09T01:21:15.377Z,34.24
2023-05-09T01:22:16.806Z,34.33
2023-05-09T01:23:15.235Z,34.32
2023-05-09T01:24:15.287Z,34.33
2023-05-09T01:25:15.689Z,34.31
2023-05-09T01:26:15.253Z,34.32
2023-05-09T01:27:15.226Z,34.26
2023-05-09T01:28:15.264Z,34.32
2023-05-09T01:29:15.283Z,34.24
2023-05-09T01:30:15.258Z,34.24
2023-05-09T01:31:15.305Z,34.31
2023-05-09T01:32:15.266Z,34.21
2023-05-09T01:33:15.299Z,34.21
2023-05-09T01:34:15.308Z,34.25
2023-05-09T01:35:15.560Z,34.30
2023-05-09T01:36:15.304Z,34.26
2023-05-09T01:37:15.412Z,34.26
2023-05-09T01:38:15.336Z,34.32
2023-05-09T01:39:15.346Z,34.21
2023-05-09T01:40:15.375Z,34.27
2023-05-09T01:41:15.375Z,34.28
2023-05-09T01:42:15.421Z,34.27
2023-05-09T01:43:15.385Z,34.23
2023-05-09T01:44:15.446Z,34.24
2023-05-09T01:45:15.943Z,34.17
2023-05-09T01:46:15.459Z,34.18
2023-05-09T01:47:15.460Z,34.25
2023-05-09T01:48:15.461Z,34.27
2023-05-09T01:49:15.482Z,34.21
2023-05-09T01:50:15.519Z,34.23
2023-05-09T01:51:15.542Z,34.23
2023-05-09T01:52:15.512Z,34.29
2023-05-09T01:53:15.591Z,34.30
2023-05-09T01:54:15.531Z,34.21
2023-05-09T01:55:15.714Z,34.19
2023-05-09T01:56:15.550Z,34.26
2023-05-09T01:57:15.582Z,34.21
2023-05-09T01:58:15.557Z,34.29
2023-05-09T01:59:15.601Z,34.26
2023-05-09T02:00:15.602Z,34.34
2023-05-09T02:01:15.772Z,34.23
2023-05-09T02:02:15.647Z,34.16
2023-05-09T02:03:15.644Z,34.25
2023-05-09T02:04:15.620Z,34.26
2023-05-09T02:05:15.897Z,34.28
2023-05-09T02:06:15.621Z,34.17
2023-05-09T02:07:15.659Z,34.23
2023-05-09T02:08:15.632Z,34.19
2023-05-09T02:09:15.752Z,34.17
2023-05-09T02:10:15.670Z,34.19
2023-05-09T02:11:15.699Z,34.24
2023-05-09T02:12:15.704Z,34.21
2023-05-09T02:13:15.758Z,34.18
2023-05-09T02:14:15.723Z,34.27
2023-05-09T02:15:15.987Z,34.26
2023-05-09T02:16:15.823Z,34.22
2023-05-09T02:17:15.754Z,34.26
2023-05-09T02:18:15.778Z,34.22
2023-05-09T02:19:15.812Z,34.30
2023-05-09T02:20:15.795Z,34.22
2023-05-09T02:21:15.881Z,34.28
2023-05-09T02:22:15.876Z,34.29
2023-05-09T02:23:15.827Z,34.31
2023-05-09T02:24:15.968Z,34.31
2023-05-09T02:25:16.281Z,34.26
2023-05-09T02:26:15.869Z,34.27
2023-05-09T02:27:15.895Z,34.15
2023-05-09T02:28:15.897Z,34.22
2023-05-09T02:29:15.898Z,34.17
2023-05-09T02:30:15.902Z,34.23
2023-05-09T02:31:15.908Z,34.18
2023-05-09T02:32:15.950Z,34.20
2023-05-09T02:33:15.946Z,34.27
2023-05-09T02:34:15.943Z,34.21
2023-05-09T02:35:16.156Z,34.23
2023-05-09T02:36:15.982Z,34.19
2023-05-09T02:37:15.998Z,34.20
2023-05-09T02:38:16.018Z,34.24
2023-05-09T02:39:16.016Z,34.25
2023-05-09T02:40:16.091Z,34.22
2023-05-09T02:41:16.154Z,34.18
2023-05-09T02:42:16.074Z,34.16
2023-05-09T02:43:16.078Z,34.23
2023-05-09T02:44:16.087Z,34.19
2023-05-09T02:45:16.276Z,34.27
2023-05-09T02:46:16.139Z,34.23
2023-05-09T02:47:16.132Z,34.26
2023-05-09T02:48:16.132Z,34.24
2023-05-09T02:49:30.875Z,34.19
2023-05-09T02:50:17.120Z,34.24
2023-05-09T02:51:16.105Z,34.14
2023-05-09T02:52:16.079Z,34.27
2023-05-09T02:53:16.052Z,34.23
2023-05-09T02:54:16.028Z,34.23
2023-05-09T02:55:16.391Z,34.23
2023-05-09T02:56:15.980Z,34.23
2023-05-09T02:57:16.042Z,34.15
2023-05-09T02:58:15.917Z,34.15
2023-05-09T02:59:15.903Z,34.27
2023-05-09T03:00:15.885Z,34.18
2023-05-09T03:01:15.885Z,34.20
2023-05-09T03:02:15.846Z,34.15
2023-05-09T03:03:15.909Z,34.15
2023-05-09T03:04:15.810Z,34.19
2023-05-09T03:05:15.970Z,34.19
2023-05-09T03:06:15.776Z,34.24
2023-05-09T03:07:15.770Z,34.27
2023-05-09T03:08:15.740Z,34.28
2023-05-09T03:09:15.744Z,34.21
2023-05-09T03:10:15.764Z,34.15
2023-05-09T03:11:15.759Z,34.14
2023-05-09T03:12:15.787Z,34.21
2023-05-09T03:13:15.891Z,34.23
2023-05-09T03:14:15.838Z,34.16
2023-05-09T03:15:15.925Z,34.25
2023-05-09T03:16:15.838Z,34.15
2023-05-09T03:17:15.855Z,34.12
2023-05-09T03:18:15.846Z,34.20
2023-05-09T03:19:15.870Z,34.16
2023-05-09T03:20:15.923Z,34.18
2023-05-09T03:21:15.903Z,34.15
2023-05-09T03:22:15.909Z,34.20
2023-05-09T03:23:15.910Z,34.19
2023-05-09T03:24:15.942Z,34.23
2023-05-09T03:25:16.201Z,34.18
2023-05-09T03:26:15.953Z,34.19
2023-05-09T03:27:15.982Z,34.14
2023-05-09T03:28:15.981Z,34.10
2023-05-09T03:29:16.112Z,34.17
2023-05-09T03:30:16.018Z,34.18
2023-05-09T03:31:16.074Z,34.16
2023-05-09T03:32:16.037Z,34.21
2023-05-09T03:33:16.050Z,34.11
2023-05-09T03:34:16.056Z,34.10
2023-05-09T03:35:16.282Z,34.23
2023-05-09T03:36:16.099Z,34.21
2023-05-09T03:37:16.097Z,34.16
2023-05-09T03:38:16.121Z,34.12
2023-05-09T03:39:16.126Z,34.08
2023-05-09T03:40:16.139Z,34.12
2023-05-09T03:41:16.215Z,34.14
2023-05-09T03:42:16.181Z,34.21
2023-05-09T03:43:16.205Z,34.15
2023-05-09T03:44:16.198Z,34.15
2023-05-09T03:45:16.448Z,34.05
2023-05-09T03:46:16.248Z,34.08
2023-05-09T03:47:16.211Z,34.12
2023-05-09T03:48:16.181Z,34.12
2023-05-09T03:49:16.162Z,34.20
2023-05-09T03:50:16.163Z,34.12
2023-05-09T03:51:16.133Z,34.15
2023-05-09T03:52:16.118Z,34.08
2023-05-09T03:53:16.103Z,34.08
2023-05-09T03:54:16.092Z,34.12
2023-05-09T03:55:16.338Z,34.11
2023-05-09T03:56:16.039Z,34.05
2023-05-09T03:57:16.024Z,34.05
2023-05-09T03:58:16.012Z,34.03
2023-05-09T03:59:15.994Z,34.12
2023-05-09T04:00:15.979Z,34.06
2023-05-09T04:01:16.070Z,34.08
2023-05-09T04:02:16.012Z,34.14
2023-05-09T04:03:16.165Z,34.11
2023-05-09T04:04:15.913Z,34.13
2023-05-09T04:05:16.171Z,34.15
2023-05-09T04:06:15.887Z,34.08
2023-05-09T04:07:15.878Z,33.99
2023-05-09T04:08:15.871Z,34.07
2023-05-09T04:09:15.840Z,34.13
2023-05-09T04:10:15.806Z,34.07
2023-05-09T04:11:15.787Z,34.12
2023-05-09T04:12:15.830Z,34.12
2023-05-09T04:13:15.864Z,34.00
2023-05-09T04:14:15.856Z,34.11
2023-05-09T04:15:16.129Z,34.08
2023-05-09T04:16:15.943Z,34.11
2023-05-09T04:17:15.964Z,34.12
2023-05-09T04:18:15.895Z,34.05
2023-05-09T04:19:16.229Z,34.03
2023-05-09T04:20:15.893Z,34.06
2023-05-09T04:21:15.917Z,34.11
2023-05-09T04:22:15.946Z,34.09
2023-05-09T04:23:15.928Z,34.03
2023-05-09T04:24:15.909Z,34.11
2023-05-09T04:25:16.245Z,34.08
2023-05-09T04:26:15.886Z,34.07
2023-05-09T04:27:15.868Z,34.09
2023-05-09T04:28:15.863Z,34.08
2023-05-09T04:29:15.840Z,34.13
2023-05-09T04:30:15.847Z,34.12
2023-05-09T04:31:15.951Z,34.14
2023-05-09T04:32:15.903Z,34.12
2023-05-09T04:33:15.888Z,34.14
2023-05-09T04:34:15.798Z,34.05
2023-05-09T04:35:18.005Z,34.12
2023-05-09T04:36:15.763Z,34.12
2023-05-09T04:37:15.762Z,34.07
2023-05-09T04:38:15.744Z,34.09
2023-05-09T04:39:15.728Z,34.12
2023-05-09T04:40:15.711Z,34.13
2023-05-09T04:41:15.695Z,34.08
2023-05-09T04:42:15.681Z,34.10
2023-05-09T04:43:15.687Z,34.08
2023-05-09T04:44:15.666Z,34.04
2023-05-09T04:45:15.899Z,34.04
2023-05-09T04:46:15.681Z,34.05
2023-05-09T04:47:15.655Z,34.00
2023-05-09T04:48:15.659Z,33.99
2023-05-09T04:49:15.720Z,34.06
2023-05-09T04:50:15.622Z,34.03
2023-05-09T04:51:15.600Z,34.00
2023-05-09T04:52:15.578Z,34.08
2023-05-09T04:53:15.592Z,34.02
2023-05-09T04:54:15.558Z,34.02
2023-05-09T04:55:15.809Z,34.02
2023-05-09T04:56:15.542Z,34.07
2023-05-09T04:57:18.576Z,34.03
2023-05-09T04:58:15.526Z,34.04
2023-05-09T04:59:15.584Z,34.04
2023-05-09T05:00:15.495Z,34.10
2023-05-09T05:01:15.494Z,34.00
2023-05-09T05:02:15.509Z,34.00
2023-05-09T05:03:15.462Z,34.02
2023-05-09T05:04:15.514Z,33.99
2023-05-09T05:05:15.553Z,34.00
2023-05-09T05:06:15.458Z,33.95
2023-05-09T05:07:15.428Z,34.02
2023-05-09T05:08:15.449Z,34.00
2023-05-09T05:09:15.406Z,33.98
2023-05-09T05:10:15.391Z,33.99
2023-05-09T05:11:15.427Z,33.97
2023-05-09T05:12:15.369Z,34.05
2023-05-09T05:13:15.387Z,34.08
2023-05-09T05:14:15.384Z,34.03
2023-05-09T05:15:15.583Z,33.94
2023-05-09T05:16:15.318Z,33.92
2023-05-09T05:17:15.357Z,33.94
2023-05-09T05:18:15.296Z,34.03
2023-05-09T05:19:15.270Z,34.00
2023-05-09T05:20:15.310Z,33.98
2023-05-09T05:21:15.338Z,33.98
2023-05-09T05:22:15.250Z,34.00
2023-05-09T05:23:15.238Z,34.00
2023-05-09T05:24:15.248Z,34.02
2023-05-09T05:25:15.618Z,34.02
2023-05-09T05:26:15.190Z,33.98
2023-05-09T05:27:15.186Z,33.99
2023-05-09T05:28:15.243Z,33.98
2023-05-09T05:29:15.184Z,33.99
2023-05-09T05:30:15.277Z,33.99
2023-05-09T05:31:15.155Z,33.95
2023-05-09T05:32:15.106Z,34.04
2023-05-09T05:33:15.104Z,34.05
2023-05-09T05:34:15.131Z,34.03
2023-05-09T05:35:15.339Z,35.02
2023-05-09T05:36:15.056Z,35.57
2023-05-09T05:37:15.127Z,36.75
2023-05-09T05:38:15.022Z,37.40
2023-05-09T05:39:14.986Z,37.78
2023-05-09T05:40:14.986Z,37.95
2023-05-09T05:41:14.981Z,37.96
2023-05-09T05:42:14.960Z,38.05
2023-05-09T05:43:14.945Z,38.06
2023-05-09T05:44:14.941Z,38.46
2023-05-09T05:45:15.170Z,38.54
2023-05-09T05:46:14.885Z,38.67
2023-05-09T05:47:14.880Z,38.80
2023-05-09T05:48:14.846Z,38.97
2023-05-09T05:49:15.159Z,39.50
2023-05-09T05:50:14.904Z,39.01
2023-05-09T05:51:14.848Z,38.13
2023-05-09T05:52:14.777Z,37.88
2023-05-09T05:53:14.869Z,37.73
2023-05-09T05:54:14.758Z,37.64
2023-05-09T05:55:14.965Z,37.41
2023-05-09T05:56:14.688Z,37.15
2023-05-09T05:57:14.720Z,37.23
2023-05-09T05:58:14.652Z,36.98
2023-05-09T05:59:14.623Z,37.00
2023-05-09T06:00:14.724Z,36.88
2023-05-09T06:01:14.593Z,36.73
2023-05-09T06:02:14.618Z,36.92
2023-05-09T06:03:14.776Z,37.03
2023-05-09T06:04:14.660Z,36.99
2023-05-09T06:05:14.775Z,37.11
2023-05-09T06:06:14.500Z,37.02
2023-05-09T06:07:14.446Z,37.02
2023-05-09T06:08:14.480Z,37.01
2023-05-09T06:09:14.487Z,36.83
2023-05-09T06:10:14.434Z,37.11
2023-05-09T06:11:14.442Z,36.94
2023-05-09T06:12:14.640Z,37.10
2023-05-09T06:13:14.381Z,37.11
2023-05-09T06:14:14.421Z,37.08
2023-05-09T06:15:15.045Z,37.05
2023-05-09T06:16:19.911Z,37.04
2023-05-09T06:17:15.272Z,36.99
2023-05-09T06:18:14.318Z,36.91
2023-05-09T06:19:14.190Z,37.15
2023-05-09T06:20:14.178Z,37.06
2023-05-09T06:21:14.893Z,37.19
2023-05-09T06:22:14.212Z,37.24
2023-05-09T06:23:14.119Z,37.25
2023-05-09T06:24:20.144Z,37.14
2023-05-09T06:25:14.354Z,36.96
2023-05-09T06:26:14.028Z,36.96
2023-05-09T06:27:13.994Z,36.95
2023-05-09T06:28:13.960Z,37.39
2023-05-09T06:29:13.933Z,37.12
2023-05-09T06:30:24.582Z,37.03
2023-05-09T06:31:14.917Z,37.04
2023-05-09T06:32:13.937Z,37.03
2023-05-09T06:33:13.929Z,37.14
2023-05-09T06:34:13.827Z,37.08
2023-05-09T06:35:13.851Z,37.17
2023-05-09T06:36:13.742Z,37.02
2023-05-09T06:37:13.795Z,36.98
2023-05-09T06:38:13.800Z,36.95
2023-05-09T06:39:13.712Z,37.09
2023-05-09T06:40:13.751Z,36.99
2023-05-09T06:41:13.793Z,37.21
2023-05-09T06:42:13.920Z,37.32
2023-05-09T06:43:13.783Z,37.05
2023-05-09T06:44:13.769Z,36.88
2023-05-09T06:45:13.961Z,36.81
2023-05-09T06:46:13.747Z,36.76
2023-05-09T06:47:13.658Z,36.79
2023-05-09T06:48:13.734Z,36.69
2023-05-09T06:49:13.650Z,36.65
2023-05-09T06:50:13.701Z,36.47
2023-05-09T06:51:13.716Z,36.48
2023-05-09T06:52:13.788Z,36.44
2023-05-09T06:53:13.774Z,36.41
2023-05-09T06:54:13.852Z,36.52
2023-05-09T06:55:14.126Z,36.58
2023-05-09T06:56:13.918Z,36.62
2023-05-09T06:57:14.004Z,36.51
2023-05-09T06:58:14.423Z,36.62
2023-05-09T06:59:14.015Z,36.52
2023-05-09T07:00:14.069Z,36.54
2023-05-09T07:01:14.170Z,36.47
2023-05-09T07:02:14.158Z,36.50
2023-05-09T07:03:14.193Z,36.36
2023-05-09T07:04:14.237Z,36.65
2023-05-09T07:05:15.204Z,36.53
2023-05-09T07:06:14.269Z,36.46
2023-05-09T07:07:14.319Z,36.36
2023-05-09T07:08:14.408Z,36.34
2023-05-09T07:09:14.381Z,36.49
2023-05-09T07:10:14.404Z,36.27
2023-05-09T07:11:14.456Z,36.01
2023-05-09T07:12:14.595Z,36.17
2023-05-09T07:13:14.742Z,36.15
2023-05-09T07:14:14.545Z,36.15
2023-05-09T07:15:18.520Z,36.23
2023-05-09T07:16:15.586Z,36.24
2023-05-09T07:17:22.867Z,36.25
2023-05-09T07:18:15.555Z,36.25
2023-05-09T07:19:14.425Z,36.23
2023-05-09T07:20:14.430Z,36.24
2023-05-09T07:21:14.368Z,36.21
2023-05-09T07:22:14.456Z,36.13
2023-05-09T07:23:14.298Z,36.04
2023-05-09T07:24:14.329Z,36.02
2023-05-09T07:25:14.422Z,36.06
2023-05-09T07:26:14.188Z,36.01
2023-05-09T07:27:14.166Z,36.06
2023-05-09T07:28:14.166Z,36.06
2023-05-09T07:29:14.280Z,35.96
2023-05-09T07:30:14.408Z,36.20
2023-05-09T07:31:14.257Z,36.13
2023-05-09T07:32:14.656Z,36.26
2023-05-09T07:33:14.316Z,36.12
2023-05-09T07:34:14.245Z,36.09
2023-05-09T07:35:15.063Z,36.00
2023-05-09T07:36:14.313Z,36.00
2023-05-09T07:37:15.432Z,35.94
2023-05-09T07:38:14.471Z,36.15
2023-05-09T07:39:14.180Z,36.11
2023-05-09T07:40:14.538Z,36.05
2023-05-09T07:41:14.114Z,36.01
2023-05-09T07:42:14.264Z,36.02
2023-05-09T07:43:14.037Z,36.05
2023-05-09T07:44:14.116Z,35.98
2023-05-09T07:45:14.557Z,36.03
2023-05-09T07:46:14.207Z,36.04
2023-05-09T07:47:14.069Z,36.00
2023-05-09T07:48:14.284Z,35.95
2023-05-09T07:49:14.058Z,35.99
2023-05-09T07:50:14.218Z,36.00
2023-05-09T07:51:14.306Z,36.06
2023-05-09T07:52:14.119Z,36.07
2023-05-09T07:53:14.094Z,36.03
2023-05-09T07:54:14.165Z,36.03
2023-05-09T07:55:14.366Z,36.19
2023-05-09T07:56:14.091Z,36.22
2023-05-09T07:57:14.057Z,36.22
2023-05-09T07:58:13.977Z,36.30
2023-05-09T07:59:13.989Z,36.20
2023-05-09T08:00:13.929Z,36.04
2023-05-09T08:01:14.060Z,35.86
2023-05-09T08:02:13.855Z,35.83
2023-05-09T08:03:13.936Z,35.76
2023-05-09T08:04:14.111Z,35.74
2023-05-09T08:05:13.982Z,35.75
2023-05-09T08:06:13.696Z,35.79
2023-05-09T08:07:13.616Z,35.77
2023-05-09T08:08:13.551Z,35.72
2023-05-09T08:09:13.560Z,35.63
2023-05-09T08:10:13.551Z,35.53
2023-05-09T08:11:13.537Z,35.48
2023-05-09T08:12:13.518Z,35.47
2023-05-09T08:13:14.992Z,35.57
2023-05-09T08:14:15.638Z,35.47
2023-05-09T08:15:13.955Z,35.44
2023-05-09T08:16:13.534Z,35.53
2023-05-09T08:17:13.585Z,35.42
2023-05-09T08:18:13.483Z,35.44
2023-05-09T08:19:13.487Z,35.41
2023-05-09T08:20:13.492Z,35.46
2023-05-09T08:21:13.478Z,35.44
2023-05-09T08:22:13.544Z,35.43
2023-05-09T08:23:13.469Z,35.50
2023-05-09T08:24:13.464Z,35.53
2023-05-09T08:25:13.684Z,35.55
2023-05-09T08:26:13.459Z,35.56
2023-05-09T08:27:13.446Z,35.46
2023-05-09T08:28:13.444Z,35.40
2023-05-09T08:29:13.426Z,35.33
2023-05-09T08:30:13.463Z,35.29
2023-05-09T08:31:13.423Z,35.30
2023-05-09T08:32:13.422Z,34.47
2023-05-09T08:33:13.567Z,34.79
2023-05-09T08:34:13.467Z,35.45
2023-05-09T08:35:13.627Z,34.90
2023-05-09T08:36:13.518Z,36.27
2023-05-09T08:37:15.205Z,36.41
2023-05-09T08:38:14.521Z,36.84
2023-05-09T08:39:13.825Z,36.59
2023-05-09T08:40:13.863Z,37.47
2023-05-09T08:41:13.646Z,37.38
2023-05-09T08:42:13.693Z,37.28
2023-05-09T08:43:13.742Z,37.20
2023-05-09T08:44:13.978Z,37.34
2023-05-09T08:45:13.944Z,37.07
2023-05-09T08:46:13.995Z,37.65
2023-05-09T08:47:13.960Z,37.26
2023-05-09T08:48:14.061Z,37.34
2023-05-09T08:49:14.253Z,37.76
2023-05-09T08:50:14.100Z,38.23
2023-05-09T08:51:13.821Z,36.85
2023-05-09T08:52:13.772Z,37.18
2023-05-09T08:53:13.774Z,36.24
2023-05-09T08:54:13.734Z,35.66
2023-05-09T08:55:13.770Z,36.63
2023-05-09T08:56:13.775Z,35.95
2023-05-09T08:57:13.818Z,35.15
2023-05-09T08:58:13.927Z,35.59
2023-05-09T08:59:13.882Z,34.58
2023-05-09T09:00:14.177Z,34.72
2023-05-09T09:01:14.085Z,34.94
2023-05-09T09:02:13.999Z,35.36
2023-05-09T09:03:14.066Z,35.43
2023-05-09T09:04:14.034Z,35.42
2023-05-09T09:05:33.992Z,35.44
2023-05-09T09:06:15.038Z,35.57
2023-05-09T09:07:14.041Z,35.81
2023-05-09T09:08:13.945Z,35.94
2023-05-09T09:09:13.998Z,35.78
2023-05-09T09:10:14.322Z,35.77
2023-05-09T09:11:13.900Z,35.82
2023-05-09T09:12:13.901Z,35.88
2023-05-09T09:13:13.878Z,35.93
2023-05-09T09:14:13.764Z,35.99
2023-05-09T09:15:13.717Z,36.00
2023-05-09T09:16:13.893Z,35.96
2023-05-09T09:17:14.480Z,35.95
2023-05-09T09:18:14.677Z,35.98
2023-05-09T09:19:13.583Z,35.91
2023-05-09T09:20:13.864Z,36.01
2023-05-09T09:21:13.701Z,36.09
2023-05-09T09:22:13.530Z,36.01
2023-05-09T09:23:13.455Z,36.05
2023-05-09T09:24:13.472Z,36.07
2023-05-09T09:25:13.355Z,36.05
2023-05-09T09:26:13.321Z,35.84
2023-05-09T09:27:13.233Z,35.97
2023-05-09T09:28:13.194Z,35.98
2023-05-09T09:29:13.171Z,36.00
2023-05-09T09:30:13.367Z,36.02
2023-05-09T09:31:13.456Z,36.01
2023-05-09T09:32:13.161Z,36.01
2023-05-09T09:33:13.203Z,35.22
2023-05-09T09:34:13.129Z,34.87
2023-05-09T09:35:13.075Z,33.51
2023-05-09T09:36:13.072Z,32.67
2023-05-09T09:37:13.167Z,32.99
2023-05-09T09:38:13.085Z,33.65
2023-05-09T09:39:13.180Z,32.44
2023-05-09T09:40:13.357Z,33.33
2023-05-09T09:41:13.133Z,34.13
2023-05-09T09:42:13.152Z,34.31
2023-05-09T09:43:13.118Z,35.23
2023-05-09T09:44:13.147Z,34.98
2023-05-09T09:45:13.158Z,34.83
2023-05-09T09:46:13.025Z,34.71
2023-05-09T09:47:13.218Z,34.80
2023-05-09T09:48:12.890Z,34.84
2023-05-09T09:49:12.833Z,34.70
2023-05-09T09:50:12.976Z,34.80
2023-05-09T09:51:12.771Z,34.76
2023-05-09T09:52:12.722Z,34.72
2023-05-09T09:53:12.809Z,34.69
2023-05-09T09:54:12.743Z,34.76
2023-05-09T09:55:12.735Z,34.75
2023-05-09T09:56:12.768Z,34.63
2023-05-09T09:57:12.765Z,34.59
2023-05-09T09:58:12.734Z,34.67
2023-05-09T09:59:12.702Z,34.61
2023-05-09T10:00:12.849Z,34.66
2023-05-09T10:01:12.674Z,34.73
2023-05-09T10:02:12.586Z,34.67
2023-05-09T10:03:12.668Z,34.93
2023-05-09T10:04:12.543Z,34.89
2023-05-09T10:05:12.455Z,34.83
2023-05-09T10:06:12.375Z,34.93
2023-05-09T10:07:14.903Z,35.22
2023-05-09T10:08:12.290Z,35.26
2023-05-09T10:09:12.330Z,35.22
2023-05-09T10:10:12.312Z,35.18
2023-05-09T10:11:12.161Z,35.26
2023-05-09T10:12:12.184Z,35.26
2023-05-09T10:13:12.180Z,35.32
2023-05-09T10:14:12.015Z,35.28
2023-05-09T10:15:11.984Z,35.23
2023-05-09T10:16:12.048Z,35.17
2023-05-09T10:17:11.929Z,35.20
2023-05-09T10:18:12.007Z,35.26
2023-05-09T10:19:11.866Z,35.30
2023-05-09T10:20:11.890Z,35.33
2023-05-09T10:21:11.712Z,35.27
2023-05-09T10:22:11.651Z,35.38
2023-05-09T10:23:11.592Z,35.19
2023-05-09T10:24:11.587Z,34.36
2023-05-09T10:25:11.598Z,34.79
2023-05-09T10:26:11.475Z,33.51
2023-05-09T10:27:11.446Z,34.21
2023-05-09T10:28:11.414Z,33.85
2023-05-09T10:29:11.395Z,34.50
2023-05-09T10:30:11.373Z,34.90
2023-05-09T10:31:11.380Z,34.82
2023-05-09T10:32:11.249Z,34.71
2023-05-09T10:33:11.240Z,34.71
2023-05-09T10:34:11.194Z,34.72
2023-05-09T10:35:12.011Z,34.68
2023-05-09T10:36:11.089Z,34.80
2023-05-09T10:37:11.032Z,34.52
2023-05-09T10:38:11.000Z,34.58
2023-05-09T10:39:10.962Z,34.64
2023-05-09T10:40:10.956Z,34.74
2023-05-09T10:41:10.954Z,34.67
2023-05-09T10:42:10.827Z,34.57
2023-05-09T10:43:10.786Z,34.42
2023-05-09T10:44:10.753Z,34.24
2023-05-09T10:45:10.761Z,34.14
2023-05-09T10:46:10.701Z,34.16
2023-05-09T10:47:10.611Z,34.83
2023-05-09T10:48:10.564Z,34.63
2023-05-09T10:49:10.524Z,34.56
2023-05-09T10:50:10.491Z,34.43
2023-05-09T10:51:10.451Z,34.29
2023-05-09T10:52:10.445Z,34.26
2023-05-09T10:53:10.393Z,34.17
2023-05-09T10:54:10.360Z,34.13
2023-05-09T10:55:10.327Z,34.00
2023-05-09T10:56:10.315Z,34.08
2023-05-09T10:57:10.406Z,33.96
2023-05-09T10:58:10.242Z,34.08
2023-05-09T10:59:10.263Z,34.19
2023-05-09T11:00:10.209Z,34.40
2023-05-09T11:01:10.219Z,34.48
2023-05-09T11:02:10.184Z,34.56
2023-05-09T11:03:10.243Z,34.81
2023-05-09T11:04:10.157Z,34.85
2023-05-09T11:05:10.117Z,34.77
2023-05-09T11:06:10.077Z,34.76
2023-05-09T11:07:10.092Z,34.77
2023-05-09T11:08:10.046Z,34.65
2023-05-09T11:09:10.042Z,34.61
2023-05-09T11:10:10.066Z,34.57
2023-05-09T11:11:09.974Z,34.42
2023-05-09T11:12:10.107Z,34.39
2023-05-09T11:13:10.081Z,34.27
2023-05-09T11:14:09.919Z,34.20
2023-05-09T11:15:09.929Z,34.12
2023-05-09T11:16:09.996Z,34.09
2023-05-09T11:17:09.830Z,33.97
2023-05-09T11:18:09.915Z,33.92
2023-05-09T11:19:09.755Z,33.89
2023-05-09T11:20:09.824Z,33.80
2023-05-09T11:21:09.823Z,33.70
2023-05-09T11:22:09.676Z,33.68
2023-05-09T11:23:09.695Z,33.67
2023-05-09T11:24:09.635Z,33.56
2023-05-09T11:25:09.620Z,33.48
2023-05-09T11:26:09.649Z,33.47
2023-05-09T11:27:09.522Z,33.47
2023-05-09T11:28:09.530Z,33.45
2023-05-09T11:29:09.642Z,33.40
2023-05-09T11:30:09.696Z,33.39
2023-05-09T11:31:09.434Z,33.31
2023-05-09T11:32:09.437Z,33.27
2023-05-09T11:33:09.633Z,33.31
2023-05-09T11:34:09.365Z,33.24
2023-05-09T11:35:09.422Z,33.22
2023-05-09T11:36:09.310Z,33.15
2023-05-09T11:37:09.316Z,33.18
2023-05-09T11:38:09.303Z,33.15
2023-05-09T11:39:09.271Z,33.11
2023-05-09T11:40:09.257Z,33.13
2023-05-09T11:41:09.216Z,33.04
2023-05-09T11:42:09.209Z,33.04
2023-05-09T11:43:09.187Z,32.98
2023-05-09T11:44:09.147Z,33.01
2023-05-09T11:45:09.604Z,32.97
2023-05-09T11:46:09.140Z,32.84
2023-05-09T11:47:09.115Z,32.94
2023-05-09T11:48:09.147Z,32.92
2023-05-09T11:49:11.345Z,32.90
2023-05-09T11:50:09.014Z,32.90
2023-05-09T11:51:08.988Z,32.87
2023-05-09T11:52:08.950Z,32.87
2023-05-09T11:53:08.929Z,32.80
2023-05-09T11:54:08.908Z,32.77
2023-05-09T11:55:10.238Z,32.73
2023-05-09T11:56:08.823Z,32.71
2023-05-09T11:57:08.789Z,32.69
2023-05-09T11:58:08.714Z,32.64
2023-05-09T11:59:08.697Z,32.67
2023-05-09T12:00:08.665Z,32.63
2023-05-09T12:01:11.183Z,32.60
2023-05-09T12:02:08.636Z,32.60
2023-05-09T12:03:08.617Z,32.53
2023-05-09T12:04:08.565Z,32.56
2023-05-09T12:05:08.536Z,32.49
2023-05-09T12:06:08.457Z,32.49
2023-05-09T12:07:08.430Z,32.52
2023-05-09T12:08:08.399Z,32.49
2023-05-09T12:09:08.371Z,32.49
2023-05-09T12:10:08.332Z,32.53
2023-05-09T12:11:08.295Z,32.47
2023-05-09T12:12:08.281Z,32.42
2023-05-09T12:13:08.257Z,32.40
2023-05-09T12:14:08.240Z,32.39
2023-05-09T12:15:08.219Z,32.42
2023-05-09T12:16:08.227Z,32.30
2023-05-09T12:17:08.208Z,32.30
2023-05-09T12:18:08.239Z,32.33
2023-05-09T12:19:08.077Z,32.33
2023-05-09T12:20:08.145Z,32.27
2023-05-09T12:21:08.010Z,32.20
2023-05-09T12:22:07.977Z,32.24
2023-05-09T12:23:07.943Z,32.24
2023-05-09T12:24:07.908Z,32.26
2023-05-09T12:25:07.916Z,32.16
2023-05-09T12:26:07.840Z,32.08
2023-05-09T12:27:07.812Z,32.13
2023-05-09T12:28:07.775Z,32.13
2023-05-09T12:29:07.747Z,32.12
2023-05-09T12:30:07.731Z,32.12
2023-05-09T12:31:07.728Z,32.03
2023-05-09T12:32:07.659Z,32.06
2023-05-09T12:33:07.786Z,32.04
2023-05-09T12:34:07.620Z,31.98
2023-05-09T12:35:07.594Z,31.91
2023-05-09T12:36:07.562Z,31.91
2023-05-09T12:37:07.515Z,31.92
2023-05-09T12:38:07.521Z,31.90
2023-05-09T12:39:07.455Z,31.91
2023-05-09T12:40:07.450Z,31.83
2023-05-09T12:41:09.181Z,31.81
2023-05-09T12:42:08.381Z,31.80
2023-05-09T12:43:07.349Z,31.73
2023-05-09T12:44:07.326Z,31.70
2023-05-09T12:45:07.340Z,31.69
2023-05-09T12:46:07.255Z,31.68
2023-05-09T12:47:07.246Z,31.65
2023-05-09T12:48:07.266Z,31.68
2023-05-09T12:49:07.278Z,31.59
2023-05-09T12:50:07.153Z,31.47
2023-05-09T12:51:07.100Z,31.48
2023-05-09T12:52:09.896Z,31.46